sensor_id;sensor_type;location;lat;lon;timestamp;pressure;altitude;pressure_sealevel;temperature;humidity
2184;BME280;1098;48.940;8.962;2023-03-18T00:02:00;98041.97;;;10.22;100.00
2184;BME280;1098;48.940;8.962;2023-03-18T00:04:29;98040.44;;;10.26;100.00
2184;BME280;1098;48.940;8.962;2023-03-18T00:06:58;98037.38;;;10.58;100.00
2184;BME280;1098;48.940;8.962;2023-03-18T00:09:26;98027.75;;;10.04;100.00
2184;BME280;1098;48.940;8.962;2023-03-18T00:11:55;98047.25;;;10.17;100.00
2184;BME280;1098;48.940;8.962;2023-03-18T00:14:24;98042.88;;;9.81;100.00
2184;BME280;1098;48.940;8.962;2023-03-18T00:16:52;98036.78;;;9.74;100.00
2184;BME280;1098;48.940;8.962;2023-03-18T00:19:22;98040.88;;;9.77;100.00
2184;BME280;1098;48.940;8.962;2023-03-18T00:21:51;98043.44;;;9.72;100.00
2184;BME280;1098;48.940;8.962;2023-03-18T00:24:19;98043.69;;;9.82;100.00
2184;BME280;1098;48.940;8.962;2023-03-18T00:26:48;98052.28;;;10.14;100.00
2184;BME280;1098;48.940;8.962;2023-03-18T00:29:16;98057.34;;;10.22;100.00
2184;BME280;1098;48.940;8.962;2023-03-18T00:31:45;98060.63;;;10.12;100.00
2184;BME280;1098;48.940;8.962;2023-03-18T00:34:14;98067.34;;;10.33;100.00
2184;BME280;1098;48.940;8.962;2023-03-18T00:36:46;98065.56;;;10.27;100.00
2184;BME280;1098;48.940;8.962;2023-03-18T00:39:17;98067.53;;;9.96;100.00
2184;BME280;1098;48.940;8.962;2023-03-18T00:41:53;98067.44;;;9.50;100.00
2184;BME280;1098;48.940;8.962;2023-03-18T00:44:22;98069.06;;;9.92;100.00
2184;BME280;1098;48.940;8.962;2023-03-18T00:46:51;98079.84;;;9.92;100.00
2184;BME280;1098;48.940;8.962;2023-03-18T00:49:19;98081.81;;;9.74;100.00
2184;BME280;1098;48.940;8.962;2023-03-18T00:51:49;98073.91;;;9.60;100.00
2184;BME280;1098;48.940;8.962;2023-03-18T00:54:18;98072.69;;;9.86;100.00
2184;BME280;1098;48.940;8.962;2023-03-18T00:56:47;98068.88;;;9.64;100.00
2184;BME280;1098;48.940;8.962;2023-03-18T00:59:16;98064.44;;;9.81;100.00
2184;BME280;1098;48.940;8.962;2023-03-18T01:01:44;98070.78;;;9.87;100.00
2184;BME280;1098;48.940;8.962;2023-03-18T01:04:15;98076.31;;;10.04;100.00
2184;BME280;1098;48.940;8.962;2023-03-18T01:06:43;98063.84;;;9.56;100.00
2184;BME280;1098;48.940;8.962;2023-03-18T01:09:14;98076.00;;;9.58;100.00
2184;BME280;1098;48.940;8.962;2023-03-18T01:11:42;98070.28;;;9.67;100.00
2184;BME280;1098;48.940;8.962;2023-03-18T01:14:11;98078.03;;;9.63;100.00
2184;BME280;1098;48.940;8.962;2023-03-18T01:16:39;98074.19;;;9.82;100.00
2184;BME280;1098;48.940;8.962;2023-03-18T01:19:08;98079.56;;;9.71;100.00
2184;BME280;1098;48.940;8.962;2023-03-18T01:21:36;98074.78;;;9.73;100.00
2184;BME280;1098;48.940;8.962;2023-03-18T01:24:05;98076.75;;;9.65;100.00
2184;BME280;1098;48.940;8.962;2023-03-18T01:26:37;98071.19;;;9.49;100.00
2184;BME280;1098;48.940;8.962;2023-03-18T01:29:06;98065.34;;;9.52;100.00
2184;BME280;1098;48.940;8.962;2023-03-18T01:31:34;98069.25;;;9.38;100.00
2184;BME280;1098;48.940;8.962;2023-03-18T01:34:09;98074.44;;;9.39;100.00
2184;BME280;1098;48.940;8.962;2023-03-18T01:36:46;98074.31;;;9.34;100.00
2184;BME280;1098;48.940;8.962;2023-03-18T01:39:15;98080.53;;;9.88;100.00
2184;BME280;1098;48.940;8.962;2023-03-18T01:41:46;98075.31;;;9.21;100.00
2184;BME280;1098;48.940;8.962;2023-03-18T01:44:22;98073.19;;;9.23;100.00
2184;BME280;1098;48.940;8.962;2023-03-18T01:46:53;98073.59;;;9.39;100.00
2184;BME280;1098;48.940;8.962;2023-03-18T01:49:26;98067.66;;;9.18;100.00
2184;BME280;1098;48.940;8.962;2023-03-18T01:52:00;98069.69;;;9.23;100.00
2184;BME280;1098;48.940;8.962;2023-03-18T01:54:33;98053.66;;;9.28;100.00
2184;BME280;1098;48.940;8.962;2023-03-18T01:57:04;98065.91;;;8.94;100.00
2184;BME280;1098;48.940;8.962;2023-03-18T01:59:37;98073.41;;;9.10;100.00
2184;BME280;1098;48.940;8.962;2023-03-18T02:02:09;98064.97;;;9.18;100.00
2184;BME280;1098;48.940;8.962;2023-03-18T02:04:41;98077.09;;;8.79;100.00
2184;BME280;1098;48.940;8.962;2023-03-18T02:07:15;98077.47;;;8.65;100.00
2184;BME280;1098;48.940;8.962;2023-03-18T02:09:45;98058.50;;;9.08;100.00
2184;BME280;1098;48.940;8.962;2023-03-18T02:12:20;98079.34;;;8.64;100.00
2184;BME280;1098;48.940;8.962;2023-03-18T02:14:52;98073.19;;;8.93;100.00
2184;BME280;1098;48.940;8.962;2023-03-18T02:17:23;98071.41;;;9.17;100.00
2184;BME280;1098;48.940;8.962;2023-03-18T02:20:00;98069.25;;;9.68;100.00
2184;BME280;1098;48.940;8.962;2023-03-18T02:22:34;98066.56;;;9.79;100.00
2184;BME280;1098;48.940;8.962;2023-03-18T02:25:17;98064.81;;;9.32;100.00
2184;BME280;1098;48.940;8.962;2023-03-18T02:27:50;98059.88;;;9.28;100.00
2184;BME280;1098;48.940;8.962;2023-03-18T02:30:24;98057.72;;;9.19;100.00
2184;BME280;1098;48.940;8.962;2023-03-18T02:32:55;98072.78;;;9.08;100.00
2184;BME280;1098;48.940;8.962;2023-03-18T02:35:29;98068.53;;;9.01;100.00
2184;BME280;1098;48.940;8.962;2023-03-18T02:38:00;98079.34;;;8.82;100.00
2184;BME280;1098;48.940;8.962;2023-03-18T02:40:31;98074.78;;;8.65;100.00
2184;BME280;1098;48.940;8.962;2023-03-18T02:43:20;98069.91;;;9.21;100.00
2184;BME280;1098;48.940;8.962;2023-03-18T02:46:11;98069.69;;;8.75;100.00
2184;BME280;1098;48.940;8.962;2023-03-18T02:48:45;98074.41;;;8.79;100.00
2184;BME280;1098;48.940;8.962;2023-03-18T02:51:16;98082.38;;;8.31;100.00
2184;BME280;1098;48.940;8.962;2023-03-18T02:53:45;98092.22;;;8.62;100.00
2184;BME280;1098;48.940;8.962;2023-03-18T02:56:14;98085.00;;;8.74;100.00
2184;BME280;1098;48.940;8.962;2023-03-18T02:58:45;98078.31;;;8.65;100.00
2184;BME280;1098;48.940;8.962;2023-03-18T03:01:18;98074.78;;;8.65;100.00
2184;BME280;1098;48.940;8.962;2023-03-18T03:03:47;98085.38;;;8.78;100.00
2184;BME280;1098;48.940;8.962;2023-03-18T03:06:16;98082.69;;;9.14;100.00
2184;BME280;1098;48.940;8.962;2023-03-18T03:08:45;98081.75;;;8.72;100.00
2184;BME280;1098;48.940;8.962;2023-03-18T03:11:14;98093.78;;;8.70;100.00
2184;BME280;1098;48.940;8.962;2023-03-18T03:13:45;98104.78;;;8.50;100.00
2184;BME280;1098;48.940;8.962;2023-03-18T03:16:16;98099.41;;;8.25;100.00
2184;BME280;1098;48.940;8.962;2023-03-18T03:18:45;98106.28;;;8.64;100.00
2184;BME280;1098;48.940;8.962;2023-03-18T03:21:14;98099.78;;;8.90;100.00
2184;BME280;1098;48.940;8.962;2023-03-18T03:23:43;98097.88;;;8.54;100.00
2184;BME280;1098;48.940;8.962;2023-03-18T03:26:13;98095.28;;;8.47;100.00
2184;BME280;1098;48.940;8.962;2023-03-18T03:28:42;98111.13;;;8.55;100.00
2184;BME280;1098;48.940;8.962;2023-03-18T03:31:13;98109.63;;;8.59;100.00
2184;BME280;1098;48.940;8.962;2023-03-18T03:33:43;98090.56;;;8.43;100.00
2184;BME280;1098;48.940;8.962;2023-03-18T03:36:14;98110.41;;;8.67;100.00
2184;BME280;1098;48.940;8.962;2023-03-18T03:38:43;98106.47;;;8.19;100.00
2184;BME280;1098;48.940;8.962;2023-03-18T03:41:12;98107.59;;;8.37;100.00
2184;BME280;1098;48.940;8.962;2023-03-18T03:43:44;98110.50;;;8.10;100.00
2184;BME280;1098;48.940;8.962;2023-03-18T03:46:14;98108.41;;;8.12;100.00
2184;BME280;1098;48.940;8.962;2023-03-18T03:48:42;98115.38;;;7.95;100.00
2184;BME280;1098;48.940;8.962;2023-03-18T03:51:13;98103.47;;;7.84;100.00
2184;BME280;1098;48.940;8.962;2023-03-18T03:53:42;98089.94;;;7.91;100.00
2184;BME280;1098;48.940;8.962;2023-03-18T03:56:14;98111.38;;;8.04;100.00
2184;BME280;1098;48.940;8.962;2023-03-18T03:58:45;98113.81;;;7.56;100.00
2184;BME280;1098;48.940;8.962;2023-03-18T04:01:16;98119.00;;;7.82;100.00
2184;BME280;1098;48.940;8.962;2023-03-18T04:03:45;98105.06;;;7.92;100.00
2184;BME280;1098;48.940;8.962;2023-03-18T04:06:15;98115.81;;;7.92;100.00
2184;BME280;1098;48.940;8.962;2023-03-18T04:08:53;98111.16;;;8.06;100.00
2184;BME280;1098;48.940;8.962;2023-03-18T04:11:22;98114.00;;;8.11;100.00
2184;BME280;1098;48.940;8.962;2023-03-18T04:13:51;98120.81;;;8.13;100.00
2184;BME280;1098;48.940;8.962;2023-03-18T04:16:22;98115.34;;;8.02;100.00
2184;BME280;1098;48.940;8.962;2023-03-18T04:18:53;98116.84;;;7.91;100.00
2184;BME280;1098;48.940;8.962;2023-03-18T04:21:23;98115.59;;;7.93;100.00
2184;BME280;1098;48.940;8.962;2023-03-18T04:23:53;98118.78;;;7.52;100.00
2184;BME280;1098;48.940;8.962;2023-03-18T04:26:22;98118.81;;;7.77;100.00
2184;BME280;1098;48.940;8.962;2023-03-18T04:28:52;98123.44;;;7.32;100.00
2184;BME280;1098;48.940;8.962;2023-03-18T04:31:22;98126.91;;;7.01;100.00
2184;BME280;1098;48.940;8.962;2023-03-18T04:33:52;98122.47;;;7.27;100.00
2184;BME280;1098;48.940;8.962;2023-03-18T04:36:21;98118.78;;;7.21;100.00
2184;BME280;1098;48.940;8.962;2023-03-18T04:38:50;98121.38;;;7.34;100.00
2184;BME280;1098;48.940;8.962;2023-03-18T04:41:19;98117.66;;;7.35;100.00
2184;BME280;1098;48.940;8.962;2023-03-18T04:43:47;98118.47;;;7.36;100.00
2184;BME280;1098;48.940;8.962;2023-03-18T04:46:17;98126.75;;;7.34;100.00
2184;BME280;1098;48.940;8.962;2023-03-18T04:48:48;98119.06;;;7.06;100.00
2184;BME280;1098;48.940;8.962;2023-03-18T04:51:17;98118.03;;;7.45;100.00
2184;BME280;1098;48.940;8.962;2023-03-18T04:53:46;98127.38;;;7.30;100.00
2184;BME280;1098;48.940;8.962;2023-03-18T04:56:15;98130.09;;;6.78;100.00
2184;BME280;1098;48.940;8.962;2023-03-18T04:58:48;98132.63;;;6.60;100.00
2184;BME280;1098;48.940;8.962;2023-03-18T05:01:21;98137.59;;;6.57;100.00
2184;BME280;1098;48.940;8.962;2023-03-18T05:03:51;98135.81;;;6.95;100.00
2184;BME280;1098;48.940;8.962;2023-03-18T05:06:24;98142.91;;;6.70;100.00
2184;BME280;1098;48.940;8.962;2023-03-18T05:08:57;98122.78;;;6.41;100.00
2184;BME280;1098;48.940;8.962;2023-03-18T05:11:29;98136.03;;;6.87;100.00
2184;BME280;1098;48.940;8.962;2023-03-18T05:14:01;98128.22;;;6.85;100.00
2184;BME280;1098;48.940;8.962;2023-03-18T05:16:38;98140.47;;;6.55;100.00
2184;BME280;1098;48.940;8.962;2023-03-18T05:19:10;98137.00;;;6.28;100.00
2184;BME280;1098;48.940;8.962;2023-03-18T05:21:47;98147.28;;;6.51;100.00
2184;BME280;1098;48.940;8.962;2023-03-18T05:24:17;98151.88;;;6.24;100.00
2184;BME280;1098;48.940;8.962;2023-03-18T05:26:46;98142.78;;;6.38;100.00
2184;BME280;1098;48.940;8.962;2023-03-18T05:29:17;98147.97;;;6.20;100.00
2184;BME280;1098;48.940;8.962;2023-03-18T05:31:55;98149.19;;;6.37;100.00
2184;BME280;1098;48.940;8.962;2023-03-18T05:34:25;98152.25;;;6.61;100.00
2184;BME280;1098;48.940;8.962;2023-03-18T05:36:54;98142.34;;;6.61;100.00
2184;BME280;1098;48.940;8.962;2023-03-18T05:39:26;98143.19;;;6.35;100.00
2184;BME280;1098;48.940;8.962;2023-03-18T05:41:55;98128.97;;;6.41;100.00
2184;BME280;1098;48.940;8.962;2023-03-18T05:44:27;98142.16;;;6.30;100.00
2184;BME280;1098;48.940;8.962;2023-03-18T05:46:59;98145.25;;;6.33;100.00
2184;BME280;1098;48.940;8.962;2023-03-18T05:49:49;98153.06;;;6.54;100.00
2184;BME280;1098;48.940;8.962;2023-03-18T05:52:26;98152.88;;;6.49;100.00
2184;BME280;1098;48.940;8.962;2023-03-18T05:54:59;98148.59;;;6.22;100.00
2184;BME280;1098;48.940;8.962;2023-03-18T05:57:32;98153.13;;;6.41;100.00
2184;BME280;1098;48.940;8.962;2023-03-18T06:00:05;98152.31;;;6.01;100.00
2184;BME280;1098;48.940;8.962;2023-03-18T06:02:44;98163.41;;;6.44;100.00
2184;BME280;1098;48.940;8.962;2023-03-18T06:05:17;98164.25;;;6.12;100.00
2184;BME280;1098;48.940;8.962;2023-03-18T06:07:47;98159.69;;;6.59;100.00
2184;BME280;1098;48.940;8.962;2023-03-18T06:10:16;98159.31;;;6.15;100.00
2184;BME280;1098;48.940;8.962;2023-03-18T06:12:46;98156.53;;;6.75;100.00
2184;BME280;1098;48.940;8.962;2023-03-18T06:15:16;98141.13;;;6.24;100.00
2184;BME280;1098;48.940;8.962;2023-03-18T06:17:47;98165.38;;;6.95;100.00
2184;BME280;1098;48.940;8.962;2023-03-18T06:20:18;98158.06;;;7.09;100.00
2184;BME280;1098;48.940;8.962;2023-03-18T06:22:46;98153.06;;;6.54;100.00
2184;BME280;1098;48.940;8.962;2023-03-18T06:25:22;98155.16;;;6.33;100.00
2184;BME280;1098;48.940;8.962;2023-03-18T06:27:53;98160.72;;;6.58;100.00
2184;BME280;1098;48.940;8.962;2023-03-18T06:30:26;98159.69;;;6.52;100.00
2184;BME280;1098;48.940;8.962;2023-03-18T06:32:55;98157.22;;;6.57;100.00
2184;BME280;1098;48.940;8.962;2023-03-18T06:35:27;98161.91;;;6.81;100.00
2184;BME280;1098;48.940;8.962;2023-03-18T06:37:56;98162.53;;;6.83;100.00
2184;BME280;1098;48.940;8.962;2023-03-18T06:40:25;98177.09;;;7.07;100.00
2184;BME280;1098;48.940;8.962;2023-03-18T06:42:55;98169.50;;;7.42;100.00
2184;BME280;1098;48.940;8.962;2023-03-18T06:45:29;98168.72;;;7.35;100.00
2184;BME280;1098;48.940;8.962;2023-03-18T06:48:03;98163.31;;;7.73;100.00
2184;BME280;1098;48.940;8.962;2023-03-18T06:50:37;98162.41;;;8.42;100.00
2184;BME280;1098;48.940;8.962;2023-03-18T06:53:11;98159.31;;;8.64;100.00
2184;BME280;1098;48.940;8.962;2023-03-18T06:55:43;98158.28;;;8.65;100.00
2184;BME280;1098;48.940;8.962;2023-03-18T06:58:15;98166.34;;;8.65;100.00
2184;BME280;1098;48.940;8.962;2023-03-18T07:00:54;98161.22;;;8.38;100.00
2184;BME280;1098;48.940;8.962;2023-03-18T07:03:25;98164.28;;;8.42;100.00
2184;BME280;1098;48.940;8.962;2023-03-18T07:05:55;98161.25;;;8.56;100.00
2184;BME280;1098;48.940;8.962;2023-03-18T07:08:24;98161.19;;;8.81;100.00
2184;BME280;1098;48.940;8.962;2023-03-18T07:10:53;98167.84;;;8.79;100.00
2184;BME280;1098;48.940;8.962;2023-03-18T07:13:27;98160.25;;;9.12;100.00
2184;BME280;1098;48.940;8.962;2023-03-18T07:15:56;98171.81;;;8.94;100.00
2184;BME280;1098;48.940;8.962;2023-03-18T07:18:26;98175.28;;;9.02;100.00
2184;BME280;1098;48.940;8.962;2023-03-18T07:20:56;98174.06;;;9.16;100.00
2184;BME280;1098;48.940;8.962;2023-03-18T07:23:26;98177.19;;;8.76;100.00
2184;BME280;1098;48.940;8.962;2023-03-18T07:25:56;98184.44;;;8.57;100.00
2184;BME280;1098;48.940;8.962;2023-03-18T07:28:25;98189.41;;;8.79;100.00
2184;BME280;1098;48.940;8.962;2023-03-18T07:30:53;98183.91;;;9.10;100.00
2184;BME280;1098;48.940;8.962;2023-03-18T07:33:24;98181.28;;;9.70;100.00
2184;BME280;1098;48.940;8.962;2023-03-18T07:35:56;98186.09;;;10.10;100.00
2184;BME280;1098;48.940;8.962;2023-03-18T07:38:25;98180.88;;;10.61;100.00
2184;BME280;1098;48.940;8.962;2023-03-18T07:40:53;98175.09;;;10.23;100.00
2184;BME280;1098;48.940;8.962;2023-03-18T07:43:22;98176.88;;;9.99;100.00
2184;BME280;1098;48.940;8.962;2023-03-18T07:45:51;98175.72;;;10.60;100.00
2184;BME280;1098;48.940;8.962;2023-03-18T07:48:19;98177.03;;;10.57;100.00
2184;BME280;1098;48.940;8.962;2023-03-18T07:50:50;98172.44;;;10.05;100.00
2184;BME280;1098;48.940;8.962;2023-03-18T07:53:19;98179.78;;;10.16;100.00
2184;BME280;1098;48.940;8.962;2023-03-18T07:55:48;98176.06;;;10.63;100.00
2184;BME280;1098;48.940;8.962;2023-03-18T07:58:18;98178.19;;;11.48;100.00
2184;BME280;1098;48.940;8.962;2023-03-18T08:00:47;98182.31;;;10.99;100.00
2184;BME280;1098;48.940;8.962;2023-03-18T08:03:15;98183.97;;;11.40;100.00
2184;BME280;1098;48.940;8.962;2023-03-18T08:05:44;98191.81;;;10.90;100.00
2184;BME280;1098;48.940;8.962;2023-03-18T08:08:12;98190.16;;;10.42;100.00
2184;BME280;1098;48.940;8.962;2023-03-18T08:10:43;98193.19;;;11.04;100.00
2184;BME280;1098;48.940;8.962;2023-03-18T08:13:11;98199.63;;;11.38;100.00
2184;BME280;1098;48.940;8.962;2023-03-18T08:15:40;98197.75;;;11.67;100.00
2184;BME280;1098;48.940;8.962;2023-03-18T08:18:08;98196.69;;;11.80;100.00
2184;BME280;1098;48.940;8.962;2023-03-18T08:20:37;98195.16;;;11.84;100.00
2184;BME280;1098;48.940;8.962;2023-03-18T08:23:05;98175.25;;;12.07;100.00
2184;BME280;1098;48.940;8.962;2023-03-18T08:25:34;98196.72;;;12.42;100.00
2184;BME280;1098;48.940;8.962;2023-03-18T08:28:04;98198.75;;;12.51;100.00
2184;BME280;1098;48.940;8.962;2023-03-18T08:30:37;98194.81;;;12.59;100.00
2184;BME280;1098;48.940;8.962;2023-03-18T08:33:08;98198.88;;;12.95;100.00
2184;BME280;1098;48.940;8.962;2023-03-18T08:35:38;98199.84;;;12.67;100.00
2184;BME280;1098;48.940;8.962;2023-03-18T08:38:09;98197.47;;;13.09;100.00
2184;BME280;1098;48.940;8.962;2023-03-18T08:40:39;98199.47;;;13.57;100.00
2184;BME280;1098;48.940;8.962;2023-03-18T08:43:08;98205.53;;;13.21;100.00
2184;BME280;1098;48.940;8.962;2023-03-18T08:45:37;98211.41;;;13.34;100.00
2184;BME280;1098;48.940;8.962;2023-03-18T08:48:05;98187.59;;;13.20;100.00
2184;BME280;1098;48.940;8.962;2023-03-18T08:50:34;98201.63;;;13.33;100.00
2184;BME280;1098;48.940;8.962;2023-03-18T08:53:04;98209.44;;;13.52;100.00
2184;BME280;1098;48.940;8.962;2023-03-18T08:55:34;98204.94;;;13.19;100.00
2184;BME280;1098;48.940;8.962;2023-03-18T08:58:03;98202.63;;;13.27;100.00
2184;BME280;1098;48.940;8.962;2023-03-18T09:00:35;98203.97;;;13.68;100.00
2184;BME280;1098;48.940;8.962;2023-03-18T09:03:04;98204.56;;;13.32;100.00
2184;BME280;1098;48.940;8.962;2023-03-18T09:05:33;98212.59;;;13.87;100.00
2184;BME280;1098;48.940;8.962;2023-03-18T09:08:02;98200.38;;;14.12;100.00
2184;BME280;1098;48.940;8.962;2023-03-18T09:10:31;98210.03;;;14.29;100.00
2184;BME280;1098;48.940;8.962;2023-03-18T09:13:00;98213.00;;;14.28;100.00
2184;BME280;1098;48.940;8.962;2023-03-18T09:15:30;98208.59;;;14.22;100.00
2184;BME280;1098;48.940;8.962;2023-03-18T09:18:01;98219.13;;;14.13;100.00
2184;BME280;1098;48.940;8.962;2023-03-18T09:20:38;98198.94;;;14.36;100.00
2184;BME280;1098;48.940;8.962;2023-03-18T09:23:08;98202.88;;;14.45;100.00
2184;BME280;1098;48.940;8.962;2023-03-18T09:25:37;98198.88;;;14.53;100.00
2184;BME280;1098;48.940;8.962;2023-03-18T09:28:06;98198.66;;;14.64;100.00
2184;BME280;1098;48.940;8.962;2023-03-18T09:30:34;98196.16;;;14.90;100.00
2184;BME280;1098;48.940;8.962;2023-03-18T09:33:05;98199.91;;;14.84;100.00
2184;BME280;1098;48.940;8.962;2023-03-18T09:35:34;98179.53;;;14.86;100.00
2184;BME280;1098;48.940;8.962;2023-03-18T09:38:03;98186.16;;;15.05;100.00
2184;BME280;1098;48.940;8.962;2023-03-18T09:40:32;98180.81;;;14.78;100.00
2184;BME280;1098;48.940;8.962;2023-03-18T09:43:15;98188.53;;;15.44;100.00
2184;BME280;1098;48.940;8.962;2023-03-18T09:45:56;98191.94;;;15.19;100.00
2184;BME280;1098;48.940;8.962;2023-03-18T09:48:39;98186.16;;;15.05;100.00
2184;BME280;1098;48.940;8.962;2023-03-18T09:51:20;98183.81;;;15.24;100.00
2184;BME280;1098;48.940;8.962;2023-03-18T09:53:55;98174.41;;;15.47;100.00
2184;BME280;1098;48.940;8.962;2023-03-18T09:56:28;98172.63;;;15.73;100.00
2184;BME280;1098;48.940;8.962;2023-03-18T09:59:00;98167.81;;;16.15;100.00
2184;BME280;1098;48.940;8.962;2023-03-18T10:01:31;98167.19;;;15.78;100.00
2184;BME280;1098;48.940;8.962;2023-03-18T10:04:05;98165.91;;;16.11;100.00
2184;BME280;1098;48.940;8.962;2023-03-18T10:06:40;98162.59;;;15.89;92.95
2184;BME280;1098;48.940;8.962;2023-03-18T10:09:15;98168.41;;;15.45;88.58
2184;BME280;1098;48.940;8.962;2023-03-18T10:11:49;98164.47;;;15.78;95.25
2184;BME280;1098;48.940;8.962;2023-03-18T10:14:31;98167.28;;;15.41;92.47
2184;BME280;1098;48.940;8.962;2023-03-18T10:17:11;98161.19;;;15.81;91.11
2184;BME280;1098;48.940;8.962;2023-03-18T10:19:45;98165.63;;;16.12;77.10
2184;BME280;1098;48.940;8.962;2023-03-18T10:22:45;98161.28;;;16.42;74.13
2184;BME280;1098;48.940;8.962;2023-03-18T10:25:20;98166.75;;;16.72;80.24
2184;BME280;1098;48.940;8.962;2023-03-18T10:28:04;98162.31;;;17.17;72.67
2184;BME280;1098;48.940;8.962;2023-03-18T10:30:43;98164.16;;;17.32;69.27
2184;BME280;1098;48.940;8.962;2023-03-18T10:33:26;98162.38;;;16.36;66.11
2184;BME280;1098;48.940;8.962;2023-03-18T10:36:04;98161.56;;;16.45;65.91
2184;BME280;1098;48.940;8.962;2023-03-18T10:38:37;98161.28;;;16.98;71.07
2184;BME280;1098;48.940;8.962;2023-03-18T10:41:14;98164.53;;;16.95;67.95
2184;BME280;1098;48.940;8.962;2023-03-18T10:43:44;98163.22;;;16.62;70.22
2184;BME280;1098;48.940;8.962;2023-03-18T10:46:18;98158.50;;;17.08;69.84
2184;BME280;1098;48.940;8.962;2023-03-18T10:48:50;98148.72;;;17.02;66.53
2184;BME280;1098;48.940;8.962;2023-03-18T10:51:25;98150.28;;;17.18;66.51
2184;BME280;1098;48.940;8.962;2023-03-18T10:54:02;98145.16;;;16.86;70.32
2184;BME280;1098;48.940;8.962;2023-03-18T10:56:34;98145.44;;;17.00;71.18
2184;BME280;1098;48.940;8.962;2023-03-18T10:59:10;98123.09;;;16.82;68.87
2184;BME280;1098;48.940;8.962;2023-03-18T11:01:44;98143.84;;;16.78;71.84
2184;BME280;1098;48.940;8.962;2023-03-18T11:04:15;98144.84;;;17.08;74.84
2184;BME280;1098;48.940;8.962;2023-03-18T11:06:48;98145.66;;;17.24;78.26
2184;BME280;1098;48.940;8.962;2023-03-18T11:09:18;98140.47;;;17.12;75.49
2184;BME280;1098;48.940;8.962;2023-03-18T11:11:48;98140.47;;;17.22;76.44
2184;BME280;1098;48.940;8.962;2023-03-18T11:14:19;98133.97;;;17.72;75.26
2184;BME280;1098;48.940;8.962;2023-03-18T11:16:56;98135.16;;;17.46;73.14
2184;BME280;1098;48.940;8.962;2023-03-18T11:19:29;98125.38;;;17.35;74.34
2184;BME280;1098;48.940;8.962;2023-03-18T11:22:02;98123.22;;;17.27;74.60
2184;BME280;1098;48.940;8.962;2023-03-18T11:24:31;98127.44;;;16.89;71.01
2184;BME280;1098;48.940;8.962;2023-03-18T11:27:23;98122.66;;;17.30;72.85
2184;BME280;1098;48.940;8.962;2023-03-18T11:29:55;98121.81;;;17.39;77.30
2184;BME280;1098;48.940;8.962;2023-03-18T11:32:26;98110.56;;;17.46;75.12
2184;BME280;1098;48.940;8.962;2023-03-18T11:34:56;98119.28;;;17.53;78.56
2184;BME280;1098;48.940;8.962;2023-03-18T11:37:33;98111.06;;;17.63;77.08
2184;BME280;1098;48.940;8.962;2023-03-18T11:40:15;98108.53;;;17.12;75.00
2184;BME280;1098;48.940;8.962;2023-03-18T11:42:46;98106.34;;;17.74;75.78
2184;BME280;1098;48.940;8.962;2023-03-18T11:45:29;98106.91;;;17.76;72.74
2184;BME280;1098;48.940;8.962;2023-03-18T11:48:01;98104.97;;;17.12;72.41
2184;BME280;1098;48.940;8.962;2023-03-18T11:50:37;98092.09;;;18.21;77.81
2184;BME280;1098;48.940;8.962;2023-03-18T11:53:12;98104.16;;;17.76;72.30
2184;BME280;1098;48.940;8.962;2023-03-18T11:55:47;98099.22;;;17.78;73.02
2184;BME280;1098;48.940;8.962;2023-03-18T11:58:43;98101.25;;;18.01;74.96
2184;BME280;1098;48.940;8.962;2023-03-18T12:01:22;98101.53;;;18.05;66.77
2184;BME280;1098;48.940;8.962;2023-03-18T12:07:15;98096.53;;;17.73;67.86
2184;BME280;1098;48.940;8.962;2023-03-18T12:09:57;98082.56;;;17.79;66.13
2184;BME280;1098;48.940;8.962;2023-03-18T12:12:43;98077.03;;;18.24;69.91
2184;BME280;1098;48.940;8.962;2023-03-18T12:15:23;98065.75;;;17.96;65.98
2184;BME280;1098;48.940;8.962;2023-03-18T12:18:10;98083.47;;;17.65;65.25
2184;BME280;1098;48.940;8.962;2023-03-18T12:20:48;98076.28;;;17.74;65.01
2184;BME280;1098;48.940;8.962;2023-03-18T12:23:33;98071.97;;;17.63;66.28
2184;BME280;1098;48.940;8.962;2023-03-18T12:26:11;98069.94;;;18.23;66.86
2184;BME280;1098;48.940;8.962;2023-03-18T12:28:48;98061.63;;;17.99;64.07
2184;BME280;1098;48.940;8.962;2023-03-18T12:31:49;98067.25;;;18.12;65.75
2184;BME280;1098;48.940;8.962;2023-03-18T12:34:34;98068.88;;;18.18;62.11
2184;BME280;1098;48.940;8.962;2023-03-18T12:37:18;98062.94;;;18.40;63.28
2184;BME280;1098;48.940;8.962;2023-03-18T12:40:12;98058.97;;;18.51;61.09
2184;BME280;1098;48.940;8.962;2023-03-18T12:42:54;98057.53;;;18.30;62.26
2184;BME280;1098;48.940;8.962;2023-03-18T12:45:33;98045.97;;;17.75;61.50
2184;BME280;1098;48.940;8.962;2023-03-18T12:48:07;98052.28;;;18.39;60.85
2184;BME280;1098;48.940;8.962;2023-03-18T12:50:38;98058.88;;;18.33;61.33
2184;BME280;1098;48.940;8.962;2023-03-18T12:53:12;98053.66;;;18.07;61.40
2184;BME280;1098;48.940;8.962;2023-03-18T12:55:45;98048.75;;;18.67;62.02
2184;BME280;1098;48.940;8.962;2023-03-18T12:58:22;98045.94;;;18.96;59.13
2184;BME280;1098;48.940;8.962;2023-03-18T13:00:54;98044.03;;;18.44;60.06
2184;BME280;1098;48.940;8.962;2023-03-18T13:03:30;98044.34;;;18.37;58.27
2184;BME280;1098;48.940;8.962;2023-03-18T13:06:03;98026.59;;;18.35;57.72
2184;BME280;1098;48.940;8.962;2023-03-18T13:08:51;98032.91;;;18.64;58.58
2184;BME280;1098;48.940;8.962;2023-03-18T13:11:53;98027.47;;;18.54;60.47
2184;BME280;1098;48.940;8.962;2023-03-18T13:14:35;98032.84;;;18.69;59.86
2184;BME280;1098;48.940;8.962;2023-03-18T13:17:10;98025.78;;;18.63;57.70
2184;BME280;1098;48.940;8.962;2023-03-18T13:19:40;98029.44;;;18.77;59.09
2184;BME280;1098;48.940;8.962;2023-03-18T13:22:24;98026.31;;;18.89;59.00
2184;BME280;1098;48.940;8.962;2023-03-18T13:25:03;98023.25;;;19.14;57.63
2184;BME280;1098;48.940;8.962;2023-03-18T13:27:56;98026.97;;;19.23;56.96
2184;BME280;1098;48.940;8.962;2023-03-18T13:30:39;98031.13;;;18.97;57.03
2184;BME280;1098;48.940;8.962;2023-03-18T13:33:33;98028.16;;;18.94;58.50
2184;BME280;1098;48.940;8.962;2023-03-18T13:39:16;98018.88;;;19.13;58.65
2184;BME280;1098;48.940;8.962;2023-03-18T13:44:54;98024.22;;;18.52;59.48
2184;BME280;1098;48.940;8.962;2023-03-18T13:47:29;98022.06;;;18.78;60.78
2184;BME280;1098;48.940;8.962;2023-03-18T13:50:00;98017.06;;;19.28;58.83
2184;BME280;1098;48.940;8.962;2023-03-18T13:52:35;98020.50;;;19.14;59.36
2184;BME280;1098;48.940;8.962;2023-03-18T13:55:06;98009.47;;;19.01;58.29
2184;BME280;1098;48.940;8.962;2023-03-18T13:57:46;98008.41;;;18.97;58.33
2184;BME280;1098;48.940;8.962;2023-03-18T14:00:28;98011.09;;;18.78;57.83